Terry, MT

2:54 AM MDT on April 01, 2015 (GMT -0600)
APRSWXNET | | Change Station
CLOSE
Current Station
Personal Weather Station
Location: Terry, MT
Elevation: 2283 ft
Nearby Weather Stations
Active Advisory: Fire Weather Warning

Elev 2283 ft 46.73 °N, 105.44 °W | Updated 34 minutes ago

Partly Cloudy
Partly Cloudy
57 °F
Feels Like 57 °F
N
27
Wind Variable Wind from West
Gusts 40.0 mph

Today
High -- | Low -- °F
--% Chance of Precip.
Yesterday
High -- | Low -- °F
Precip. -- in
6:40 AM 7:30 PM
Waxing Gibbous, 91% visible
Pressure 29.51 in
Visibility 10.0 miles
Clouds Clear
Dew Point 37 °F
Humidity 47%
Rainfall in
Snow Depth Not available.
UV 0 out of 12
Pollen 6.00 out of 12
Air Quality Not available.
Flu Activity Not available.
METAR KMLS 010753Z AUTO 32024G33KT 10SM CLR 13/01 A2955 RMK AO2 PK WND 33035/0722 RAB11E23B41E51 SLP991 P0000 T01330011

More Conditions Fewer Conditions

Pressure 29.51 in
Visibility 10.0 miles
Clouds Clear
Dew Point 37 °F
Humidity 47%
Rainfall in
Snow Depth Not available.
UV 0 out of 12
Pollen 6.00 out of 12
Air Quality Not available.
Flu Activity Not available.
METAR KMLS 010753Z AUTO 32024G33KT 10SM CLR 13/01 A2955 RMK AO2 PK WND 33035/0722 RAB11E23B41E51 SLP991 P0000 T01330011

More Conditions Fewer Conditions

10-Day Weather Forecast

Almanac

Astronomy

Apr. 01, 2015 Rise Set
Actual Time
Civil Twilight
Nautical Twilight
Astronomical Twilight
Moon
Length of Visible Light
Length of Day
Tomorrow will be .
, % of the Moon is Illuminated

Today's Extremes

State Highs State Lows

Community

WunderPhotos

Upload Photos

1,809,933 photos uploaded!

WunderBlogs® & News

Nearby

Air Quality

  Air Quality AQ Index Pollutant
Not available.

Snow Depth

Station Depth Elevation

Earthquake Activity

City Distance Mag. Time & Date
Minimum magnitude displayed is 2.5.

Coastal Water Temperatures

Place Temperature

Stations

Nearby Weather Stations

Station Location Temp. Windchill Dew Point Humidity Wind Precip. Elev Updated Type
                   
Fire Weather Warning
Statement as of 11:21 PM MDT on March 31, 2015

... Red flag warning remains in effect until 9 PM MDT Wednesday for
gusty west winds and low relative humidity...

* affected area... fire weather zones 120... 122... 134... 135...
136 and 137.

* Winds... west 25 to 35 mph with gusts up to 50 mph.

* Relative humidity... as low as 16 percent.

* Impacts... the combination of dry fuels... strong winds... and low
relative humidity can contribute to extreme fire behavior.

Precautionary/preparedness actions...

Please advise the appropriate officials or fire crews in these
areas of this red flag warning.